Time,TemperatureF,DewpointF,PressureIn,WindDirection,WindDirectionDegrees,WindSpeedMPH,WindSpeedGustMPH,Humidity,HourlyPrecipIn,Conditions,Clouds,dailyrainin,SoftwareType,DateUTC
2013-11-24 00:05:00,26.6,26.1,30.11,East,90,0.0,-999.0,98,-99.99,,,0.00,Acu-Link.com,2013-11-24 08:05:00,
2013-11-24 00:21:00,26.6,26.1,30.10,ESE,112,0.0,-999.0,98,-99.99,,,0.00,Acu-Link.com,2013-11-24 08:21:00,
2013-11-24 00:36:00,26.6,25.1,30.10,East,90,0.0,-999.0,94,-99.99,,,0.00,Acu-Link.com,2013-11-24 08:36:00,
2013-11-24 00:51:00,24.8,23.3,30.10,East,90,0.0,-999.0,94,-99.99,,,0.00,Acu-Link.com,2013-11-24 08:51:00,
2013-11-24 01:06:00,24.8,24.3,30.10,ENE,67,0.0,-999.0,98,-99.99,,,0.00,Acu-Link.com,2013-11-24 09:06:00,
2013-11-24 01:21:00,24.8,24.3,30.10,NE,45,0.0,-999.0,98,-99.99,,,0.00,Acu-Link.com,2013-11-24 09:21:00,
2013-11-24 01:36:00,23.0,22.5,30.10,NE,45,0.0,-999.0,98,-99.99,,,0.00,Acu-Link.com,2013-11-24 09:36:00,
2013-11-24 01:52:00,23.0,21.3,30.10,ENE,67,0.0,-999.0,93,-99.99,,,0.00,Acu-Link.com,2013-11-24 09:52:00,
2013-11-24 02:07:00,23.0,22.5,30.10,ENE,67,0.0,-999.0,98,-99.99,,,0.00,Acu-Link.com,2013-11-24 10:07:00,
2013-11-24 02:22:00,23.0,22.5,30.11,NE,45,0.0,-999.0,98,-99.99,,,0.00,Acu-Link.com,2013-11-24 10:22:00,
2013-11-24 02:37:00,23.0,22.5,30.10,NE,45,0.0,-999.0,98,-99.99,,,0.00,Acu-Link.com,2013-11-24 10:37:00,
2013-11-24 02:53:00,21.2,20.7,30.10,NE,45,0.0,-999.0,98,-99.99,,,0.00,Acu-Link.com,2013-11-24 10:53:00,
2013-11-24 03:08:00,21.2,20.7,30.10,NE,45,0.0,-999.0,98,-99.99,,,0.00,Acu-Link.com,2013-11-24 11:08:00,
2013-11-24 03:23:00,21.2,20.7,30.09,East,90,0.0,-999.0,98,-99.99,,,0.00,Acu-Link.com,2013-11-24 11:23:00,
2013-11-24 03:38:00,21.2,20.7,30.09,East,90,0.0,-999.0,98,-99.99,,,0.00,Acu-Link.com,2013-11-24 11:38:00,
2013-11-24 03:53:00,21.2,19.7,30.09,SSE,157,0.0,-999.0,94,-99.99,,,0.00,Acu-Link.com,2013-11-24 11:53:00,
2013-11-24 04:09:00,19.4,17.0,30.09,ESE,112,0.0,-999.0,90,-99.99,,,0.00,Acu-Link.com,2013-11-24 12:09:00,
2013-11-24 04:24:00,19.4,17.0,30.09,NE,45,0.0,-999.0,90,-99.99,,,0.00,Acu-Link.com,2013-11-24 12:24:00,
2013-11-24 04:39:00,19.4,17.0,30.10,NE,45,0.0,-999.0,90,-99.99,,,0.00,Acu-Link.com,2013-11-24 12:39:00,
2013-11-24 04:54:00,19.4,17.0,30.10,NE,45,0.0,-999.0,90,-99.99,,,0.00,Acu-Link.com,2013-11-24 12:54:00,
2013-11-24 05:09:00,17.6,15.2,30.10,NE,45,0.0,-999.0,90,-99.99,,,0.00,Acu-Link.com,2013-11-24 13:09:00,
2013-11-24 05:25:00,17.6,14.9,30.10,NE,45,0.0,-999.0,89,-99.99,,,0.00,Acu-Link.com,2013-11-24 13:25:00,
2013-11-24 05:40:00,17.6,14.9,30.10,NE,45,0.0,-999.0,89,-99.99,,,0.00,Acu-Link.com,2013-11-24 13:40:00,
2013-11-24 05:55:00,17.6,15.2,30.10,NE,45,0.0,-999.0,90,-99.99,,,0.00,Acu-Link.com,2013-11-24 13:55:00,
2013-11-24 06:10:00,17.6,15.2,30.10,NE,45,0.0,-999.0,90,-99.99,,,0.00,Acu-Link.com,2013-11-24 14:10:00,
2013-11-24 06:25:00,17.6,15.2,30.10,NE,45,0.0,-999.0,90,-99.99,,,0.00,Acu-Link.com,2013-11-24 14:25:00,
2013-11-24 06:40:00,17.6,15.2,30.10,SSE,157,0.0,-999.0,90,-99.99,,,0.00,Acu-Link.com,2013-11-24 14:40:00,
2013-11-24 06:56:00,17.6,15.2,30.11,SSW,202,0.0,-999.0,90,-99.99,,,0.00,Acu-Link.com,2013-11-24 14:56:00,
2013-11-24 07:11:00,15.8,13.1,30.10,SSW,202,0.0,-999.0,89,-99.99,,,0.00,Acu-Link.com,2013-11-24 15:11:00,
2013-11-24 07:26:00,15.8,12.9,30.10,SE,135,0.0,-999.0,88,-99.99,,,0.00,Acu-Link.com,2013-11-24 15:26:00,
2013-11-24 07:41:00,14.0,11.1,30.11,ESE,112,0.0,-999.0,88,-99.99,,,0.00,Acu-Link.com,2013-11-24 15:41:00,
2013-11-24 07:56:00,14.0,11.4,30.11,ESE,112,0.0,-999.0,89,-99.99,,,0.00,Acu-Link.com,2013-11-24 15:56:00,
2013-11-24 08:11:00,15.8,13.1,30.11,ESE,112,0.0,-999.0,89,-99.99,,,0.00,Acu-Link.com,2013-11-24 16:11:00,
2013-11-24 08:27:00,17.6,14.9,30.12,ESE,112,0.0,-999.0,89,-99.99,,,0.00,Acu-Link.com,2013-11-24 16:27:00,
2013-11-24 08:42:00,17.6,15.2,30.12,ESE,112,0.0,-999.0,90,-99.99,,,0.00,Acu-Link.com,2013-11-24 16:42:00,
2013-11-24 08:57:00,19.4,17.0,30.12,SSW,202,0.0,-999.0,90,-99.99,,,0.00,Acu-Link.com,2013-11-24 16:57:00,
2013-11-24 09:12:00,19.4,17.0,30.12,SW,225,0.0,-999.0,90,-99.99,,,0.00,Acu-Link.com,2013-11-24 17:12:00,
2013-11-24 09:27:00,21.2,18.7,30.12,SE,135,0.0,-999.0,90,-99.99,,,0.00,Acu-Link.com,2013-11-24 17:27:00,
2013-11-24 09:43:00,21.2,18.7,30.13,SSW,202,0.0,-999.0,90,-99.99,,,0.00,Acu-Link.com,2013-11-24 17:43:00,
2013-11-24 09:58:00,23.0,20.5,30.13,SSE,157,0.0,-999.0,90,-99.99,,,0.00,Acu-Link.com,2013-11-24 17:58:00,
2013-11-24 10:13:00,23.0,20.5,30.12,SSW,202,0.0,-999.0,90,-99.99,,,0.00,Acu-Link.com,2013-11-24 18:13:00,
2013-11-24 10:28:00,24.8,22.6,30.13,SSW,202,0.0,-999.0,91,-99.99,,,0.00,Acu-Link.com,2013-11-24 18:28:00,
2013-11-24 10:43:00,26.6,24.1,30.13,SSE,157,0.0,-999.0,90,-99.99,,,0.00,Acu-Link.com,2013-11-24 18:43:00,
2013-11-24 10:58:00,26.6,23.3,30.13,WSW,247,0.0,-999.0,87,-99.99,,,0.00,Acu-Link.com,2013-11-24 18:58:00,
2013-11-24 11:14:00,28.4,25.3,30.13,SW,225,0.0,-999.0,88,-99.99,,,0.00,Acu-Link.com,2013-11-24 19:14:00,
2013-11-24 11:29:00,28.4,25.0,30.13,SSW,202,0.0,-999.0,87,-99.99,,,0.00,Acu-Link.com,2013-11-24 19:29:00,
2013-11-24 11:44:00,28.4,24.5,30.12,ESE,112,0.0,-999.0,85,-99.99,,,0.00,Acu-Link.com,2013-11-24 19:44:00,
2013-11-24 11:59:00,28.4,24.2,30.12,SSW,202,0.0,-999.0,84,-99.99,,,0.00,Acu-Link.com,2013-11-24 19:59:00,
2013-11-24 12:14:00,30.2,26.2,30.12,WSW,247,0.0,-999.0,85,-99.99,,,0.00,Acu-Link.com,2013-11-24 20:14:00,
2013-11-24 12:29:00,30.2,25.4,30.13,SSE,157,0.0,-999.0,82,-99.99,,,0.00,Acu-Link.com,2013-11-24 20:29:00,
2013-11-24 12:44:00,30.2,25.4,30.13,SSE,157,0.0,-999.0,82,-99.99,,,0.00,Acu-Link.com,2013-11-24 20:44:00,
2013-11-24 12:59:00,30.2,25.4,30.12,SSE,157,0.0,-999.0,82,-99.99,,,0.00,Acu-Link.com,2013-11-24 20:59:00,
2013-11-24 13:15:00,32.0,27.1,30.12,SSE,157,0.0,-999.0,82,-99.99,,,0.00,Acu-Link.com,2013-11-24 21:15:00,
2013-11-24 13:30:00,32.0,26.8,30.11,ESE,112,0.0,-999.0,81,-99.99,,,0.00,Acu-Link.com,2013-11-24 21:30:00,
2013-11-24 13:45:00,32.0,27.1,30.11,SSW,202,0.0,-999.0,82,-99.99,,,0.00,Acu-Link.com,2013-11-24 21:45:00,
2013-11-24 14:00:00,32.0,26.8,30.11,SW,225,0.0,-999.0,81,-99.99,,,0.00,Acu-Link.com,2013-11-24 22:00:00,
2013-11-24 14:15:00,32.0,26.8,30.11,SW,225,0.0,-999.0,81,-99.99,,,0.00,Acu-Link.com,2013-11-24 22:15:00,
2013-11-24 14:30:00,32.0,26.8,30.11,SSW,202,0.0,-999.0,81,-99.99,,,0.00,Acu-Link.com,2013-11-24 22:30:00,
2013-11-24 14:46:00,32.0,27.4,30.11,SW,225,0.0,-999.0,83,-99.99,,,0.00,Acu-Link.com,2013-11-24 22:46:00,
2013-11-24 15:01:00,32.0,27.7,30.12,ESE,112,0.0,-999.0,84,-99.99,,,0.00,Acu-Link.com,2013-11-24 23:01:00,
2013-11-24 15:16:00,30.2,26.0,30.12,West,270,0.0,-999.0,84,-99.99,,,0.00,Acu-Link.com,2013-11-24 23:16:00,
2013-11-24 15:31:00,30.2,26.2,30.13,NE,45,0.0,-999.0,85,-99.99,,,0.00,Acu-Link.com,2013-11-24 23:31:00,
2013-11-24 15:46:00,30.2,26.5,30.13,ESE,112,0.0,-999.0,86,-99.99,,,0.00,Acu-Link.com,2013-11-24 23:46:00,
2013-11-24 16:01:00,30.2,26.8,30.14,West,270,0.0,-999.0,87,-99.99,,,0.00,Acu-Link.com,2013-11-25 00:01:00,
2013-11-24 16:16:00,30.2,26.8,30.13,ENE,67,0.0,-999.0,87,-99.99,,,0.00,Acu-Link.com,2013-11-25 00:16:00,
2013-11-24 16:31:00,30.2,26.8,30.13,ENE,67,0.0,-999.0,87,-99.99,,,0.00,Acu-Link.com,2013-11-25 00:31:00,
2013-11-24 16:47:00,28.4,25.3,30.14,SE,135,0.0,-999.0,88,-99.99,,,0.00,Acu-Link.com,2013-11-25 00:47:00,
2013-11-24 17:02:00,28.4,25.6,30.14,NNE,22,0.0,-999.0,89,-99.99,,,0.00,Acu-Link.com,2013-11-25 01:02:00,
2013-11-24 17:17:00,28.4,25.8,30.14,ENE,67,0.0,-999.0,90,-99.99,,,0.00,Acu-Link.com,2013-11-25 01:17:00,
2013-11-24 17:32:00,28.4,25.8,30.14,WSW,247,0.0,-999.0,90,-99.99,,,0.00,Acu-Link.com,2013-11-25 01:32:00,
2013-11-24 17:47:00,28.4,25.8,30.15,ESE,112,0.0,-999.0,90,-99.99,,,0.00,Acu-Link.com,2013-11-25 01:47:00,
2013-11-24 18:02:00,28.4,25.8,30.15,East,90,0.0,-999.0,90,-99.99,,,0.00,Acu-Link.com,2013-11-25 02:02:00,
2013-11-24 18:17:00,28.4,25.8,30.15,East,90,0.0,-999.0,90,-99.99,,,0.00,Acu-Link.com,2013-11-25 02:17:00,
2013-11-24 18:33:00,28.4,27.7,30.15,East,90,0.0,-999.0,97,-99.99,,,0.00,Acu-Link.com,2013-11-25 02:33:00,
2013-11-24 18:48:00,28.4,27.2,30.15,South,180,0.0,-999.0,95,-99.99,,,0.00,Acu-Link.com,2013-11-25 02:48:00,
2013-11-24 19:03:00,28.4,27.7,30.16,SSE,157,0.0,-999.0,97,-99.99,,,0.00,Acu-Link.com,2013-11-25 03:03:00,
2013-11-24 19:18:00,28.4,27.9,30.16,SE,135,0.0,-999.0,98,-99.99,,,0.00,Acu-Link.com,2013-11-25 03:18:00,
2013-11-24 19:34:00,28.4,27.9,30.15,ESE,112,0.0,-999.0,98,-99.99,,,0.00,Acu-Link.com,2013-11-25 03:34:00,
2013-11-24 19:49:00,28.4,27.9,30.15,ESE,112,0.0,-999.0,98,-99.99,,,0.00,Acu-Link.com,2013-11-25 03:49:00,
2013-11-24 20:04:00,28.4,26.1,30.11,SE,135,0.0,-999.0,91,-99.99,,,0.00,Acu-Link.com,2013-11-25 04:04:00,
2013-11-24 20:19:00,28.4,26.1,30.12,East,90,0.0,-999.0,91,-99.99,,,0.00,Acu-Link.com,2013-11-25 04:19:00,
2013-11-24 20:34:00,28.4,26.1,30.12,East,90,0.0,-999.0,91,-99.99,,,0.00,Acu-Link.com,2013-11-25 04:34:00,
2013-11-24 20:50:00,28.4,26.1,30.13,East,90,0.0,-999.0,91,-99.99,,,0.00,Acu-Link.com,2013-11-25 04:50:00,
2013-11-24 21:05:00,28.4,25.8,30.13,East,90,0.0,-999.0,90,-99.99,,,0.00,Acu-Link.com,2013-11-25 05:05:00,
2013-11-24 21:20:00,28.4,25.8,30.14,East,90,0.0,-999.0,90,-99.99,,,0.00,Acu-Link.com,2013-11-25 05:20:00,
2013-11-24 21:35:00,28.4,25.8,30.14,ESE,112,0.0,-999.0,90,-99.99,,,0.00,Acu-Link.com,2013-11-25 05:35:00,
2013-11-24 21:50:00,28.4,25.8,30.15,ESE,112,0.0,-999.0,90,-99.99,,,0.00,Acu-Link.com,2013-11-25 05:50:00,
2013-11-24 22:05:00,28.4,25.8,30.14,ENE,67,0.0,-999.0,90,-99.99,,,0.00,Acu-Link.com,2013-11-25 06:05:00,
2013-11-24 22:21:00,28.4,25.8,30.15,SE,135,0.0,-999.0,90,-99.99,,,0.00,Acu-Link.com,2013-11-25 06:21:00,
2013-11-24 22:36:00,28.4,25.8,30.16,WSW,247,0.0,-999.0,90,-99.99,,,0.00,Acu-Link.com,2013-11-25 06:36:00,
2013-11-24 22:51:00,28.4,25.8,30.16,East,90,0.0,-999.0,90,-99.99,,,0.00,Acu-Link.com,2013-11-25 06:51:00,
2013-11-24 23:06:00,28.4,25.8,30.15,ESE,112,0.0,-999.0,90,-99.99,,,0.00,Acu-Link.com,2013-11-25 07:06:00,
2013-11-24 23:21:00,30.2,27.6,30.15,SSW,202,0.0,-999.0,90,-99.99,,,0.00,Acu-Link.com,2013-11-25 07:21:00,
2013-11-24 23:36:00,28.4,25.8,30.16,ESE,112,0.0,-999.0,90,-99.99,,,0.00,Acu-Link.com,2013-11-25 07:36:00,
2013-11-24 23:52:00,28.4,25.6,30.15,ESE,112,0.0,-999.0,89,-99.99,,,0.00,Acu-Link.com,2013-11-25 07:52:00,